首页
METAR-TAF:

METAR-TAF

机场 :

彭德-雅皮特國際機場

皮特尔角城, 瓜德罗普

纬度: 16-16N, 经度: 061-31W, 海拔: 11米

当前天气观测

该预报发布于18分钟前的01:30 UTC
静风
温度 22°C
湿度 88%
气压 1020 hPa
能见度10公里或以上
少量云层高于2600英尺

METAR: TFFR 230130Z AUTO 00000KT 9999 FEW026 22/20 Q1020

时间: 21:48 (01:48 UTC)

预报

该预报发布于3小时和10分钟前的22:38 UTC
预报有效从22日的 22点(UTC)到 23日的 18点(UTC)
风速12节,风向
能见度10公里或以上
散云层高于2500英尺
散云层高于4500英尺
几率 30% :
短暂存在
从 22日的 18点(UTC)到 22日的 22点(UTC)
风速15节,风向,有时为26节阵风
几率 30% :
短暂存在
从 22日的 18点(UTC)到 23日的 09点(UTC)
能見度: 4000
散云层高于1800英尺, 塔状积云.
阵雨

TAF: TFFR 222238Z 2222/2318 10012KT 9999 SCT025 SCT045 PROB30 TEMPO 2218/2222 10015G26KT PROB30 TEMPO 2218/2309 4000 SHRA SCT018TCU

超过4000个机场的气象观测和天气预报(METAR&TAF报告)。

可查询的气象台以黄色和红色小点在地图上表示。

将鼠标移到小点上方,可查看气象台名称。

然后点击查看天气观测和预报。

如需切换地图:点击带黑十字的绿色按钮放大地图;点击带横线的绿色按钮缩小地图;或者点击绿色箭头查看邻近地区的地图。


METAR-TAF: